createdAt,value
2022-12-12T00:00:23.348Z,41.37
2022-12-12T00:02:51.705Z,39.27
2022-12-12T00:05:20.138Z,34.80
2022-12-12T00:07:47.716Z,44.00
2022-12-12T00:10:15.681Z,44.53
2022-12-12T00:12:43.486Z,39.67
2022-12-12T00:15:11.638Z,43.87
2022-12-12T00:17:39.681Z,37.70
2022-12-12T00:20:07.980Z,40.53
2022-12-12T00:22:35.635Z,39.60
2022-12-12T00:25:03.736Z,51.90
2022-12-12T00:27:34.339Z,42.67
2022-12-12T00:30:02.037Z,38.83
2022-12-12T00:32:30.406Z,39.17
2022-12-12T00:34:58.136Z,39.40
2022-12-12T00:37:25.737Z,45.20
2022-12-12T00:39:54.255Z,46.63
2022-12-12T00:42:21.781Z,39.10
2022-12-12T00:44:49.859Z,44.43
2022-12-12T00:47:17.692Z,43.00
2022-12-12T00:49:45.248Z,40.60
2022-12-12T00:52:12.835Z,40.70
2022-12-12T00:54:41.080Z,39.87
2022-12-12T00:57:08.728Z,42.00
2022-12-12T00:59:36.445Z,38.57
2022-12-12T01:02:04.408Z,32.67
2022-12-12T01:04:33.808Z,40.93
2022-12-12T01:07:01.586Z,31.30
2022-12-12T01:09:29.139Z,37.63
2022-12-12T01:11:56.784Z,29.60
2022-12-12T01:14:25.087Z,29.90
2022-12-12T01:16:52.843Z,38.23
2022-12-12T01:19:20.478Z,37.17
2022-12-12T01:21:48.121Z,32.67
2022-12-12T01:24:15.695Z,31.40
2022-12-12T01:26:43.669Z,34.57
2022-12-12T01:29:11.217Z,36.27
2022-12-12T01:31:38.998Z,35.93
2022-12-12T01:34:06.895Z,39.10
2022-12-12T01:36:34.704Z,32.13
2022-12-12T01:39:03.277Z,32.97
2022-12-12T01:41:32.078Z,27.37
2022-12-12T01:44:27.424Z,31.17
2022-12-12T01:46:55.093Z,37.17
2022-12-12T01:49:27.640Z,28.03
2022-12-12T01:52:03.166Z,35.03
2022-12-12T01:54:41.734Z,34.80
2022-12-12T01:57:27.764Z,35.40
2022-12-12T01:59:55.957Z,35.80
2022-12-12T02:02:23.672Z,31.93
2022-12-12T02:04:51.709Z,25.47
2022-12-12T02:07:19.489Z,31.50
2022-12-12T02:09:51.186Z,36.20
2022-12-12T02:12:18.816Z,32.07
2022-12-12T02:14:53.281Z,30.63
2022-12-12T02:18:12.552Z,35.87
2022-12-12T02:21:35.300Z,40.07
2022-12-12T02:24:39.627Z,38.23
2022-12-12T02:27:52.422Z,34.93
2022-12-12T02:31:32.708Z,33.73
2022-12-12T02:34:43.730Z,36.03
2022-12-12T02:37:56.630Z,40.00
2022-12-12T02:40:37.592Z,36.40
2022-12-12T02:43:41.953Z,29.83
2022-12-12T02:46:46.034Z,35.47
2022-12-12T02:49:40.965Z,38.10
2022-12-12T02:52:11.914Z,42.33
2022-12-12T02:54:40.724Z,41.10
2022-12-12T02:57:34.465Z,36.97
2022-12-12T03:00:18.997Z,39.53
2022-12-12T03:04:06.471Z,32.83
2022-12-12T03:07:46.700Z,44.20
2022-12-12T03:11:08.140Z,41.20
2022-12-12T03:14:14.193Z,43.83
2022-12-12T03:17:08.922Z,34.43
2022-12-12T03:20:04.752Z,37.97
2022-12-12T03:23:07.872Z,36.60
2022-12-12T03:26:13.699Z,36.90
2022-12-12T03:29:16.454Z,38.47
2022-12-12T03:31:58.543Z,34.13
2022-12-12T03:34:39.638Z,36.47
2022-12-12T03:37:20.106Z,36.40
2022-12-12T03:40:18.930Z,38.70
2022-12-12T03:43:26.904Z,36.30
2022-12-12T03:46:39.682Z,39.30
2022-12-12T03:49:30.784Z,37.63
2022-12-12T03:52:25.884Z,38.40
2022-12-12T03:55:44.766Z,35.53
2022-12-12T03:58:36.181Z,39.97
2022-12-12T04:01:11.857Z,39.27
2022-12-12T04:04:14.508Z,37.20
2022-12-12T04:07:23.248Z,40.60
2022-12-12T04:10:10.210Z,41.73
2022-12-12T04:13:40.647Z,38.33
2022-12-12T04:16:31.188Z,42.10
2022-12-12T04:19:42.201Z,49.17
2022-12-12T04:22:44.400Z,51.37
2022-12-12T04:26:21.341Z,39.17
2022-12-12T04:29:15.379Z,35.30
2022-12-12T04:32:35.701Z,50.83
2022-12-12T04:35:23.681Z,43.73
2022-12-12T04:38:10.617Z,39.03
2022-12-12T04:40:50.692Z,42.50
2022-12-12T04:43:36.798Z,38.80
2022-12-12T04:46:22.795Z,45.00
2022-12-12T04:49:14.955Z,38.33
2022-12-12T04:51:55.183Z,42.73
2022-12-12T04:55:48.455Z,43.07
2022-12-12T04:58:17.503Z,46.43
2022-12-12T05:01:15.588Z,42.20
2022-12-12T05:04:05.607Z,48.60
2022-12-12T05:06:49.597Z,37.37
2022-12-12T05:09:19.673Z,45.20
2022-12-12T05:11:49.062Z,45.57
2022-12-12T05:14:18.527Z,49.30
2022-12-12T05:17:03.529Z,52.60
2022-12-12T05:19:31.294Z,55.10
2022-12-12T05:21:58.798Z,54.47
2022-12-12T05:24:31.225Z,49.00
2022-12-12T05:27:01.029Z,56.30
2022-12-12T05:29:28.651Z,52.20
2022-12-12T05:31:56.392Z,48.30
2022-12-12T05:34:24.649Z,46.80
2022-12-12T05:36:52.199Z,56.00
2022-12-12T05:39:19.968Z,52.97
2022-12-12T05:41:47.561Z,56.03
2022-12-12T05:44:15.110Z,54.57
2022-12-12T05:46:42.688Z,44.97
2022-12-12T05:49:10.277Z,48.97
2022-12-12T05:51:37.826Z,59.60
2022-12-12T05:54:05.996Z,55.17
2022-12-12T05:56:33.683Z,50.60
2022-12-12T05:59:01.882Z,49.27
2022-12-12T06:01:29.545Z,44.13
2022-12-12T06:03:57.247Z,46.90
2022-12-12T06:06:25.214Z,54.63
2022-12-12T06:08:52.778Z,56.03
2022-12-12T06:11:20.407Z,56.10
2022-12-12T06:13:49.834Z,48.33
2022-12-12T06:16:20.229Z,50.23
2022-12-12T06:18:56.970Z,44.30
2022-12-12T06:21:25.013Z,44.33
2022-12-12T06:23:52.635Z,36.90
2022-12-12T06:26:21.863Z,40.80
2022-12-12T06:28:50.358Z,41.73
2022-12-12T06:31:18.547Z,40.30
2022-12-12T06:33:46.387Z,45.97
2022-12-12T06:36:26.575Z,49.10
2022-12-12T06:39:01.715Z,44.23
2022-12-12T06:41:33.681Z,49.40
2022-12-12T06:44:01.505Z,49.90
2022-12-12T06:46:30.744Z,43.80
2022-12-12T06:48:59.781Z,44.53
2022-12-12T06:51:36.498Z,47.00
2022-12-12T06:54:04.676Z,43.83
2022-12-12T06:56:32.828Z,46.07
2022-12-12T06:59:01.097Z,55.77
2022-12-12T07:01:28.832Z,49.33
2022-12-12T07:03:56.547Z,46.70
2022-12-12T07:06:25.465Z,52.47
2022-12-12T07:08:54.170Z,48.07
2022-12-12T07:11:27.208Z,45.63
2022-12-12T07:13:58.347Z,47.57
2022-12-12T07:16:26.405Z,50.87
2022-12-12T07:18:54.041Z,45.63
2022-12-12T07:21:22.854Z,50.40
2022-12-12T07:23:50.506Z,53.33
2022-12-12T07:26:24.277Z,49.80
2022-12-12T07:28:53.167Z,55.23
2022-12-12T07:31:26.205Z,47.80
2022-12-12T07:33:57.158Z,44.83
2022-12-12T07:36:24.923Z,47.87
2022-12-12T07:38:52.684Z,44.70
2022-12-12T07:41:20.991Z,43.00
2022-12-12T07:43:51.135Z,50.80
2022-12-12T07:46:25.359Z,47.00
2022-12-12T07:48:54.668Z,52.03
2022-12-12T07:51:23.415Z,40.43
2022-12-12T07:53:51.485Z,47.47
2022-12-12T07:56:20.792Z,49.43
2022-12-12T07:58:49.331Z,45.37
2022-12-12T08:01:26.075Z,48.73
2022-12-12T08:03:54.961Z,45.60
2022-12-12T08:06:24.585Z,46.13
2022-12-12T08:08:55.363Z,47.07
2022-12-12T08:11:25.946Z,47.17
2022-12-12T08:13:56.061Z,51.50
2022-12-12T08:16:30.659Z,41.33
2022-12-12T08:18:59.656Z,47.43
2022-12-12T08:21:28.629Z,43.73
2022-12-12T08:24:02.767Z,47.50
2022-12-12T08:26:33.702Z,46.03
2022-12-12T08:29:03.861Z,44.77
2022-12-12T08:31:36.356Z,45.27
2022-12-12T08:34:07.835Z,44.73
2022-12-12T08:36:37.485Z,44.80
2022-12-12T08:39:16.028Z,41.10
2022-12-12T08:41:48.231Z,52.57
2022-12-12T08:44:23.047Z,54.70
2022-12-12T08:46:52.059Z,47.67
2022-12-12T08:49:23.798Z,45.40
2022-12-12T08:51:52.145Z,45.40
2022-12-12T08:54:20.273Z,46.23
2022-12-12T08:56:48.034Z,47.00
2022-12-12T08:59:15.699Z,48.20
2022-12-12T09:01:43.454Z,49.80
2022-12-12T09:04:11.188Z,52.90
2022-12-12T09:06:38.896Z,46.00
2022-12-12T09:09:06.442Z,51.90
2022-12-12T09:11:34.250Z,49.30
2022-12-12T09:14:02.554Z,50.27
2022-12-12T09:16:30.565Z,44.27
2022-12-12T09:18:58.309Z,45.30
2022-12-12T09:21:26.499Z,45.83
2022-12-12T09:23:54.028Z,52.43
2022-12-12T09:26:21.913Z,43.27
2022-12-12T09:28:50.336Z,49.77
2022-12-12T09:31:19.007Z,45.40
2022-12-12T09:33:47.380Z,40.07
2022-12-12T09:36:16.121Z,45.07
2022-12-12T09:38:44.480Z,44.53
2022-12-12T09:41:24.094Z,41.90
2022-12-12T09:44:18.760Z,48.13
2022-12-12T09:47:12.013Z,44.23
2022-12-12T09:50:04.386Z,43.33
2022-12-12T09:52:40.751Z,43.77
2022-12-12T09:56:24.897Z,48.20
2022-12-12T09:59:33.889Z,47.10
2022-12-12T10:02:44.009Z,47.80
2022-12-12T10:05:43.439Z,47.43
2022-12-12T10:08:42.376Z,48.13
2022-12-12T10:11:47.225Z,54.03
2022-12-12T10:14:36.207Z,41.83
2022-12-12T10:17:24.286Z,45.00
2022-12-12T10:20:18.654Z,48.97
2022-12-12T10:23:12.621Z,51.63
2022-12-12T10:25:56.639Z,41.10
2022-12-12T10:28:31.301Z,45.03
2022-12-12T10:31:35.834Z,50.70
2022-12-12T10:35:09.770Z,43.03
2022-12-12T10:38:44.987Z,40.53
2022-12-12T10:41:56.837Z,43.83
2022-12-12T10:45:18.183Z,43.30
2022-12-12T10:47:47.888Z,47.80
2022-12-12T10:50:52.372Z,44.03
2022-12-12T10:53:22.482Z,47.10
2022-12-12T10:56:24.592Z,49.30
2022-12-12T10:59:03.970Z,53.37
2022-12-12T11:02:08.598Z,49.07
2022-12-12T11:04:31.714Z,51.57
2022-12-12T11:06:59.359Z,54.77
2022-12-12T11:09:31.225Z,56.73
2022-12-12T11:12:12.128Z,53.10
2022-12-12T11:14:48.375Z,53.60
2022-12-12T11:17:35.617Z,47.13
2022-12-12T11:20:18.074Z,51.67
2022-12-12T11:22:46.594Z,48.07
2022-12-12T11:25:34.189Z,52.67
2022-12-12T11:28:06.901Z,56.60
2022-12-12T11:30:43.791Z,48.63
2022-12-12T11:33:38.370Z,49.23
2022-12-12T11:36:07.451Z,46.27
2022-12-12T11:38:45.817Z,44.37
2022-12-12T11:41:14.098Z,43.33
2022-12-12T11:43:50.731Z,44.90
2022-12-12T11:46:25.823Z,37.87
2022-12-12T11:48:53.326Z,46.07
2022-12-12T11:51:45.091Z,41.80
2022-12-12T11:54:34.458Z,38.60
2022-12-12T11:58:15.913Z,43.93
2022-12-12T12:01:17.951Z,39.53
2022-12-12T12:04:23.910Z,42.30
2022-12-12T12:07:15.328Z,37.80
2022-12-12T12:10:01.770Z,44.23
2022-12-12T12:13:48.323Z,40.83
2022-12-12T12:17:05.012Z,38.03
2022-12-12T12:20:19.803Z,34.40
2022-12-12T12:23:17.629Z,32.80
2022-12-12T12:26:09.463Z,30.77
2022-12-12T12:29:22.142Z,36.10
2022-12-12T12:32:48.070Z,31.07
2022-12-12T12:35:38.044Z,37.30
2022-12-12T12:39:17.110Z,32.37
2022-12-12T12:42:49.397Z,33.30
2022-12-12T12:46:29.776Z,32.80
2022-12-12T12:49:39.959Z,30.20
2022-12-12T12:52:38.897Z,26.73
2022-12-12T12:55:21.114Z,22.50
2022-12-12T12:57:52.920Z,29.93
2022-12-12T13:00:30.797Z,28.50
2022-12-12T13:03:17.699Z,26.57
2022-12-12T13:06:02.510Z,29.70
2022-12-12T13:09:30.085Z,23.80
2022-12-12T13:12:35.462Z,25.13
2022-12-12T13:15:27.101Z,24.43
2022-12-12T13:18:16.399Z,22.87
2022-12-12T13:21:35.587Z,23.60
2022-12-12T13:24:27.219Z,22.27
2022-12-12T13:27:22.544Z,19.07
2022-12-12T13:30:15.259Z,20.30
2022-12-12T13:33:47.361Z,20.60
2022-12-12T13:36:33.202Z,24.17
2022-12-12T13:39:06.841Z,20.23
2022-12-12T13:42:15.473Z,21.00
2022-12-12T13:44:50.537Z,19.90
2022-12-12T13:47:25.144Z,28.47
2022-12-12T13:50:24.260Z,24.13
2022-12-12T13:53:07.557Z,24.30
2022-12-12T13:55:38.630Z,24.73
2022-12-12T13:58:21.067Z,22.20
2022-12-12T14:01:27.558Z,23.00
2022-12-12T14:03:56.883Z,20.40
2022-12-12T14:06:31.378Z,21.80
2022-12-12T14:09:01.098Z,20.27
2022-12-12T14:11:37.535Z,25.77
2022-12-12T14:14:23.435Z,19.73
2022-12-12T14:16:57.149Z,24.37
2022-12-12T14:19:44.821Z,25.70
2022-12-12T14:22:50.698Z,28.83
2022-12-12T14:25:34.376Z,28.40
2022-12-12T14:28:25.649Z,23.80
2022-12-12T14:31:15.787Z,26.47
2022-12-12T14:34:05.000Z,21.57
2022-12-12T14:37:11.549Z,35.33
2022-12-12T14:40:27.924Z,28.67
2022-12-12T14:43:45.103Z,24.97
2022-12-12T14:46:20.111Z,24.50
2022-12-12T14:48:48.758Z,23.43
2022-12-12T14:51:31.903Z,26.50
2022-12-12T14:54:03.986Z,22.13
2022-12-12T14:57:01.925Z,27.57
2022-12-12T14:59:41.115Z,26.33
2022-12-12T15:02:34.052Z,23.40
2022-12-12T15:05:07.723Z,23.40
2022-12-12T15:07:39.255Z,22.67
2022-12-12T15:10:30.964Z,34.43
2022-12-12T15:12:58.853Z,21.77
2022-12-12T15:15:33.756Z,24.23
2022-12-12T15:18:02.390Z,21.47
2022-12-12T15:20:32.739Z,28.17
2022-12-12T15:23:08.814Z,24.83
2022-12-12T15:25:56.310Z,23.37
2022-12-12T15:28:28.702Z,24.70
2022-12-12T15:30:56.556Z,24.03
2022-12-12T15:33:27.835Z,36.73
2022-12-12T15:36:03.119Z,25.37
2022-12-12T15:38:34.481Z,26.07
2022-12-12T15:41:12.944Z,21.63
2022-12-12T15:43:43.367Z,27.57
2022-12-12T15:46:16.196Z,28.80
2022-12-12T15:48:50.488Z,30.83
2022-12-12T15:51:25.089Z,26.10
2022-12-12T15:53:55.593Z,28.33
2022-12-12T15:56:29.170Z,32.67
2022-12-12T15:59:09.072Z,31.50
2022-12-12T16:01:36.982Z,31.97
2022-12-12T16:04:26.144Z,24.07
2022-12-12T16:06:53.815Z,27.13
2022-12-12T16:09:27.068Z,31.10
2022-12-12T16:11:59.959Z,33.77
2022-12-12T16:14:43.361Z,34.13
2022-12-12T16:17:28.279Z,29.20
2022-12-12T16:20:16.180Z,39.40
2022-12-12T16:22:49.897Z,40.27
2022-12-12T16:25:34.561Z,40.77
2022-12-12T16:28:08.222Z,35.40
2022-12-12T16:30:39.816Z,45.23
2022-12-12T16:33:32.119Z,39.37
2022-12-12T16:36:14.548Z,36.77
2022-12-12T16:38:43.294Z,44.97
2022-12-12T16:41:18.605Z,36.03
2022-12-12T16:43:46.539Z,38.03
2022-12-12T16:46:25.588Z,43.30
2022-12-12T16:48:54.776Z,39.13
2022-12-12T16:51:32.997Z,35.40
2022-12-12T16:54:01.348Z,37.50
2022-12-12T16:56:29.179Z,46.17
2022-12-12T16:58:57.288Z,43.13
2022-12-12T17:01:25.453Z,42.87
2022-12-12T17:03:53.240Z,43.07
2022-12-12T17:06:21.110Z,44.67
2022-12-12T17:08:48.774Z,46.10
2022-12-12T17:11:16.702Z,38.07
2022-12-12T17:13:51.146Z,43.93
2022-12-12T17:16:24.164Z,44.17
2022-12-12T17:18:55.123Z,42.93
2022-12-12T17:21:23.404Z,39.80
2022-12-12T17:23:51.206Z,41.50
2022-12-12T17:26:19.171Z,51.70
2022-12-12T17:28:46.837Z,40.57
2022-12-12T17:31:14.509Z,44.80
2022-12-12T17:33:50.703Z,42.73
2022-12-12T17:36:19.985Z,45.40
2022-12-12T17:38:48.597Z,50.50
2022-12-12T17:41:16.411Z,48.77
2022-12-12T17:43:44.122Z,52.03
2022-12-12T17:46:17.975Z,63.67
2022-12-12T17:48:48.528Z,58.43
2022-12-12T17:51:23.962Z,65.50
2022-12-12T17:53:52.876Z,59.83
2022-12-12T17:56:25.806Z,64.03
2022-12-12T17:58:54.783Z,63.63
2022-12-12T18:01:31.700Z,65.67
2022-12-12T18:04:02.931Z,67.37
2022-12-12T18:06:35.232Z,59.63
2022-12-12T18:09:05.182Z,69.63
2022-12-12T18:11:35.810Z,67.77
2022-12-12T18:14:08.044Z,70.10
2022-12-12T18:16:37.329Z,72.60
2022-12-12T18:19:05.202Z,64.10
2022-12-12T18:24:29.549Z,91.83
2022-12-12T18:27:00.824Z,169.00
2022-12-12T18:29:28.564Z,64.13
2022-12-12T18:31:56.902Z,109.97
2022-12-12T18:34:25.846Z,76.53
2022-12-12T18:36:54.157Z,68.23
2022-12-12T18:39:21.844Z,72.00
2022-12-12T18:41:49.566Z,75.60
2022-12-12T18:44:17.190Z,69.83
2022-12-12T18:46:44.797Z,78.77
2022-12-12T18:49:15.705Z,70.20
2022-12-12T18:51:46.387Z,71.37
2022-12-12T18:54:17.036Z,64.30
2022-12-12T18:56:47.483Z,71.40
2022-12-12T18:59:17.524Z,67.23
2022-12-12T19:01:45.634Z,61.87
2022-12-12T19:04:22.502Z,62.20
2022-12-12T19:06:53.046Z,67.17
2022-12-12T19:09:22.374Z,71.80
2022-12-12T19:11:51.721Z,69.23
2022-12-12T19:14:21.665Z,56.70
2022-12-12T19:16:49.372Z,64.53
2022-12-12T19:19:18.163Z,63.10
2022-12-12T19:21:46.561Z,69.13
2022-12-12T19:24:14.729Z,67.20
2022-12-12T19:26:45.696Z,56.17
2022-12-12T19:29:20.939Z,54.73
2022-12-12T19:31:52.652Z,58.07
2022-12-12T19:34:25.424Z,53.47
2022-12-12T19:36:53.050Z,53.93
2022-12-12T19:39:21.175Z,62.93
2022-12-12T19:41:48.769Z,53.07
2022-12-12T19:44:16.446Z,73.93
2022-12-12T19:46:47.856Z,58.47
2022-12-12T19:49:17.513Z,53.77
2022-12-12T19:51:46.053Z,49.23
2022-12-12T19:54:21.823Z,58.33
2022-12-12T19:56:49.654Z,58.97
2022-12-12T19:59:20.058Z,53.87
2022-12-12T20:01:48.488Z,51.57
2022-12-12T20:04:25.634Z,54.13
2022-12-12T20:06:53.574Z,66.90
2022-12-12T20:09:28.516Z,58.83
2022-12-12T20:12:03.179Z,55.70
2022-12-12T20:14:35.710Z,59.27
2022-12-12T20:17:04.614Z,57.40
2022-12-12T20:19:32.359Z,65.30
2022-12-12T20:22:01.685Z,50.80
2022-12-12T20:24:33.561Z,56.00
2022-12-12T20:27:05.807Z,64.70
2022-12-12T20:29:33.524Z,59.07
2022-12-12T20:32:01.771Z,54.43
2022-12-12T20:34:30.117Z,62.33
2022-12-12T20:36:58.806Z,65.63
2022-12-12T20:39:26.770Z,60.27
2022-12-12T20:41:56.681Z,62.97
2022-12-12T20:44:26.102Z,70.10
2022-12-12T20:46:53.954Z,64.73
2022-12-12T20:49:24.079Z,59.50
2022-12-12T20:51:55.909Z,61.77
2022-12-12T20:54:28.310Z,63.00
2022-12-12T20:56:58.619Z,64.60
2022-12-12T20:59:27.293Z,67.33
2022-12-12T21:01:55.182Z,58.53
2022-12-12T21:04:24.287Z,70.40
2022-12-12T21:06:52.612Z,59.23
2022-12-12T21:09:25.991Z,65.43
2022-12-12T21:11:58.636Z,66.30
2022-12-12T21:14:30.997Z,60.43
2022-12-12T21:16:58.824Z,67.50
2022-12-12T21:19:26.453Z,64.10
2022-12-12T21:21:54.737Z,66.67
2022-12-12T21:24:22.882Z,70.47
2022-12-12T21:26:51.143Z,57.57
2022-12-12T21:29:19.472Z,65.80
2022-12-12T21:31:51.533Z,55.67
2022-12-12T21:34:23.643Z,61.13
2022-12-12T21:36:56.806Z,56.50
2022-12-12T21:39:29.036Z,62.57
2022-12-12T21:41:57.297Z,69.70
2022-12-12T21:44:26.325Z,59.23
2022-12-12T21:46:54.253Z,60.13
2022-12-12T21:49:28.047Z,65.20
2022-12-12T21:52:10.191Z,59.03
2022-12-12T21:54:38.110Z,62.37
2022-12-12T21:57:08.071Z,63.20
2022-12-12T21:59:38.615Z,60.27
2022-12-12T22:02:07.424Z,64.77
2022-12-12T22:04:35.039Z,65.43
2022-12-12T22:07:02.652Z,67.73
2022-12-12T22:09:30.199Z,55.53
2022-12-12T22:12:04.078Z,58.20
2022-12-12T22:14:35.376Z,57.30
2022-12-12T22:17:05.602Z,65.00
2022-12-12T22:19:33.882Z,58.13
2022-12-12T22:22:01.458Z,67.17
2022-12-12T22:24:29.134Z,62.20
2022-12-12T22:26:56.889Z,68.93
2022-12-12T22:29:24.520Z,58.80
2022-12-12T22:31:52.716Z,58.63
2022-12-12T22:34:24.743Z,54.30
2022-12-12T22:36:54.046Z,66.63
2022-12-12T22:39:28.088Z,62.00
2022-12-12T22:41:57.233Z,64.70
2022-12-12T22:44:26.753Z,56.70
2022-12-12T22:46:56.110Z,61.93
2022-12-12T22:49:26.722Z,59.73
2022-12-12T22:51:58.619Z,61.53
2022-12-12T22:54:27.465Z,58.70
2022-12-12T22:56:55.711Z,58.87
2022-12-12T22:59:25.337Z,65.57
2022-12-12T23:01:53.026Z,55.80
2022-12-12T23:04:20.939Z,57.07
2022-12-12T23:06:48.628Z,64.40
2022-12-12T23:09:26.275Z,62.73
2022-12-12T23:11:55.667Z,74.17
2022-12-12T23:14:26.979Z,64.33
2022-12-12T23:16:56.189Z,55.13
2022-12-12T23:19:26.258Z,52.63
2022-12-12T23:21:54.377Z,64.57
2022-12-12T23:24:22.623Z,52.30
2022-12-12T23:26:52.115Z,60.27
2022-12-12T23:29:21.209Z,54.20
2022-12-12T23:31:49.415Z,69.97
2022-12-12T23:34:24.327Z,53.80
2022-12-12T23:36:54.348Z,62.30
2022-12-12T23:39:25.120Z,66.60
2022-12-12T23:41:54.980Z,64.30
2022-12-12T23:44:25.062Z,70.37
2022-12-12T23:46:53.471Z,58.00
2022-12-12T23:49:26.283Z,60.90
2022-12-12T23:51:58.965Z,58.97
2022-12-12T23:54:35.277Z,61.47
2022-12-12T23:57:03.941Z,63.00
2022-12-12T23:59:31.920Z,63.80
